sensor_id;sensor_type;location;lat;lon;timestamp;temperature;humidity
27890;DHT22;15238;49.082;9.102;2022-07-29T00:00:16;20.40;99.90
27890;DHT22;15238;49.082;9.102;2022-07-29T00:02:17;20.30;99.90
27890;DHT22;15238;49.082;9.102;2022-07-29T00:04:18;20.30;99.90
27890;DHT22;15238;49.082;9.102;2022-07-29T00:06:19;20.30;99.90
27890;DHT22;15238;49.082;9.102;2022-07-29T00:08:21;20.20;99.90
27890;DHT22;15238;49.082;9.102;2022-07-29T00:10:21;20.10;99.90
27890;DHT22;15238;49.082;9.102;2022-07-29T00:12:24;20.10;99.90
27890;DHT22;15238;49.082;9.102;2022-07-29T00:14:25;19.90;99.90
27890;DHT22;15238;49.082;9.102;2022-07-29T00:16:26;19.90;99.90
27890;DHT22;15238;49.082;9.102;2022-07-29T00:18:26;19.80;99.90
27890;DHT22;15238;49.082;9.102;2022-07-29T00:20:27;19.70;99.90
27890;DHT22;15238;49.082;9.102;2022-07-29T00:22:28;19.60;99.90
27890;DHT22;15238;49.082;9.102;2022-07-29T00:24:28;19.60;99.90
27890;DHT22;15238;49.082;9.102;2022-07-29T00:26:29;19.50;99.90
27890;DHT22;15238;49.082;9.102;2022-07-29T00:28:31;19.40;99.90
27890;DHT22;15238;49.082;9.102;2022-07-29T00:30:32;19.40;99.90
27890;DHT22;15238;49.082;9.102;2022-07-29T00:32:33;19.30;99.90
27890;DHT22;15238;49.082;9.102;2022-07-29T00:34:33;19.30;99.90
27890;DHT22;15238;49.082;9.102;2022-07-29T00:36:53;19.20;99.90
27890;DHT22;15238;49.082;9.102;2022-07-29T00:38:53;19.10;99.90
27890;DHT22;15238;49.082;9.102;2022-07-29T00:40:54;19.10;99.90
27890;DHT22;15238;49.082;9.102;2022-07-29T00:42:54;19.00;99.90
27890;DHT22;15238;49.082;9.102;2022-07-29T00:44:55;18.90;99.90
27890;DHT22;15238;49.082;9.102;2022-07-29T00:46:56;19.00;99.90
27890;DHT22;15238;49.082;9.102;2022-07-29T00:48:57;19.10;99.90
27890;DHT22;15238;49.082;9.102;2022-07-29T00:50:59;19.00;99.90
27890;DHT22;15238;49.082;9.102;2022-07-29T00:53:02;19.00;99.90
27890;DHT22;15238;49.082;9.102;2022-07-29T00:55:04;18.90;99.90
27890;DHT22;15238;49.082;9.102;2022-07-29T00:57:07;19.00;99.90
27890;DHT22;15238;49.082;9.102;2022-07-29T00:59:08;18.90;99.90
27890;DHT22;15238;49.082;9.102;2022-07-29T01:01:08;18.90;99.90
27890;DHT22;15238;49.082;9.102;2022-07-29T01:03:09;18.90;99.90
27890;DHT22;15238;49.082;9.102;2022-07-29T01:05:11;18.90;99.90
27890;DHT22;15238;49.082;9.102;2022-07-29T01:07:12;18.90;99.90
27890;DHT22;15238;49.082;9.102;2022-07-29T01:09:14;18.90;99.90
27890;DHT22;15238;49.082;9.102;2022-07-29T01:11:15;19.00;99.90
27890;DHT22;15238;49.082;9.102;2022-07-29T01:13:17;19.00;99.90
27890;DHT22;15238;49.082;9.102;2022-07-29T01:15:18;19.00;99.90
27890;DHT22;15238;49.082;9.102;2022-07-29T01:17:33;19.00;99.90
27890;DHT22;15238;49.082;9.102;2022-07-29T01:21:59;19.00;99.90
27890;DHT22;15238;49.082;9.102;2022-07-29T01:26:32;19.00;99.90
27890;DHT22;15238;49.082;9.102;2022-07-29T01:31:02;19.00;99.90
27890;DHT22;15238;49.082;9.102;2022-07-29T01:33:08;18.90;99.90
27890;DHT22;15238;49.082;9.102;2022-07-29T01:35:18;18.90;99.90
27890;DHT22;15238;49.082;9.102;2022-07-29T01:37:43;18.90;99.90
27890;DHT22;15238;49.082;9.102;2022-07-29T01:39:47;18.90;99.90
27890;DHT22;15238;49.082;9.102;2022-07-29T01:41:53;19.00;99.90
27890;DHT22;15238;49.082;9.102;2022-07-29T01:44:01;19.00;99.90
27890;DHT22;15238;49.082;9.102;2022-07-29T01:46:07;19.00;99.90
27890;DHT22;15238;49.082;9.102;2022-07-29T01:48:24;19.00;99.90
27890;DHT22;15238;49.082;9.102;2022-07-29T01:50:38;19.00;99.90
27890;DHT22;15238;49.082;9.102;2022-07-29T01:52:54;19.00;99.90
27890;DHT22;15238;49.082;9.102;2022-07-29T01:54:59;19.00;99.90
27890;DHT22;15238;49.082;9.102;2022-07-29T01:57:03;19.00;99.90
27890;DHT22;15238;49.082;9.102;2022-07-29T01:59:06;18.90;99.90
27890;DHT22;15238;49.082;9.102;2022-07-29T02:01:09;18.90;99.90
27890;DHT22;15238;49.082;9.102;2022-07-29T02:03:12;18.90;99.90
27890;DHT22;15238;49.082;9.102;2022-07-29T02:05:15;18.90;99.90
27890;DHT22;15238;49.082;9.102;2022-07-29T02:07:19;18.90;99.90
27890;DHT22;15238;49.082;9.102;2022-07-29T02:09:21;18.90;99.90
27890;DHT22;15238;49.082;9.102;2022-07-29T02:11:22;18.90;99.90
27890;DHT22;15238;49.082;9.102;2022-07-29T02:13:23;18.90;99.90
27890;DHT22;15238;49.082;9.102;2022-07-29T02:15:26;18.90;99.90
27890;DHT22;15238;49.082;9.102;2022-07-29T02:17:32;18.80;99.90
27890;DHT22;15238;49.082;9.102;2022-07-29T02:19:34;18.80;99.90
27890;DHT22;15238;49.082;9.102;2022-07-29T02:21:37;18.80;99.90
27890;DHT22;15238;49.082;9.102;2022-07-29T02:23:38;18.80;99.90
27890;DHT22;15238;49.082;9.102;2022-07-29T02:25:41;18.80;99.90
27890;DHT22;15238;49.082;9.102;2022-07-29T02:27:42;18.80;99.90
27890;DHT22;15238;49.082;9.102;2022-07-29T02:29:45;18.70;99.90
27890;DHT22;15238;49.082;9.102;2022-07-29T02:31:48;18.70;99.90
27890;DHT22;15238;49.082;9.102;2022-07-29T02:33:49;18.70;99.90
27890;DHT22;15238;49.082;9.102;2022-07-29T02:35:52;18.70;99.90
27890;DHT22;15238;49.082;9.102;2022-07-29T02:37:53;18.70;99.90
27890;DHT22;15238;49.082;9.102;2022-07-29T02:40:15;18.70;99.90
27890;DHT22;15238;49.082;9.102;2022-07-29T02:42:17;18.70;99.90
27890;DHT22;15238;49.082;9.102;2022-07-29T02:44:23;18.70;99.90
27890;DHT22;15238;49.082;9.102;2022-07-29T02:46:29;18.60;99.90
27890;DHT22;15238;49.082;9.102;2022-07-29T02:48:37;18.50;99.90
27890;DHT22;15238;49.082;9.102;2022-07-29T02:50:44;18.50;99.90
27890;DHT22;15238;49.082;9.102;2022-07-29T02:53:00;18.50;99.90
27890;DHT22;15238;49.082;9.102;2022-07-29T02:55:25;18.50;99.90
27890;DHT22;15238;49.082;9.102;2022-07-29T02:57:32;18.50;99.90
27890;DHT22;15238;49.082;9.102;2022-07-29T02:59:36;18.60;99.90
27890;DHT22;15238;49.082;9.102;2022-07-29T03:01:41;18.60;99.90
27890;DHT22;15238;49.082;9.102;2022-07-29T03:03:46;18.60;99.90
27890;DHT22;15238;49.082;9.102;2022-07-29T03:05:48;18.60;99.90
27890;DHT22;15238;49.082;9.102;2022-07-29T03:07:55;18.60;99.90
27890;DHT22;15238;49.082;9.102;2022-07-29T03:09:58;18.60;99.90
27890;DHT22;15238;49.082;9.102;2022-07-29T03:12:00;18.60;99.90
27890;DHT22;15238;49.082;9.102;2022-07-29T03:14:01;18.60;99.90
27890;DHT22;15238;49.082;9.102;2022-07-29T03:16:02;18.50;99.90
27890;DHT22;15238;49.082;9.102;2022-07-29T03:18:03;18.50;99.90
27890;DHT22;15238;49.082;9.102;2022-07-29T03:20:07;18.40;99.90
27890;DHT22;15238;49.082;9.102;2022-07-29T03:22:08;18.20;99.90
27890;DHT22;15238;49.082;9.102;2022-07-29T03:24:09;18.00;99.90
27890;DHT22;15238;49.082;9.102;2022-07-29T03:26:10;17.90;99.90
27890;DHT22;15238;49.082;9.102;2022-07-29T03:28:11;17.90;99.90
27890;DHT22;15238;49.082;9.102;2022-07-29T03:30:12;17.80;99.90
27890;DHT22;15238;49.082;9.102;2022-07-29T03:32:13;17.80;99.90
27890;DHT22;15238;49.082;9.102;2022-07-29T03:34:14;17.90;99.90
27890;DHT22;15238;49.082;9.102;2022-07-29T03:36:15;17.90;99.90
27890;DHT22;15238;49.082;9.102;2022-07-29T03:38:15;17.90;99.90
27890;DHT22;15238;49.082;9.102;2022-07-29T03:40:49;17.90;99.90
27890;DHT22;15238;49.082;9.102;2022-07-29T03:42:53;17.90;99.90
27890;DHT22;15238;49.082;9.102;2022-07-29T03:44:56;18.00;99.90
27890;DHT22;15238;49.082;9.102;2022-07-29T03:46:59;18.00;99.90
27890;DHT22;15238;49.082;9.102;2022-07-29T03:49:04;17.90;99.90
27890;DHT22;15238;49.082;9.102;2022-07-29T03:51:05;17.90;99.90
27890;DHT22;15238;49.082;9.102;2022-07-29T03:53:06;18.00;99.90
27890;DHT22;15238;49.082;9.102;2022-07-29T03:55:08;18.00;99.90
27890;DHT22;15238;49.082;9.102;2022-07-29T03:57:11;18.00;99.90
27890;DHT22;15238;49.082;9.102;2022-07-29T03:59:16;18.00;99.90
27890;DHT22;15238;49.082;9.102;2022-07-29T04:01:17;17.90;99.90
27890;DHT22;15238;49.082;9.102;2022-07-29T04:03:19;17.90;99.90
27890;DHT22;15238;49.082;9.102;2022-07-29T04:05:19;17.90;99.90
27890;DHT22;15238;49.082;9.102;2022-07-29T04:07:20;17.90;99.90
27890;DHT22;15238;49.082;9.102;2022-07-29T04:09:21;17.80;99.90
27890;DHT22;15238;49.082;9.102;2022-07-29T04:11:21;17.80;99.90
27890;DHT22;15238;49.082;9.102;2022-07-29T04:13:22;17.80;99.90
27890;DHT22;15238;49.082;9.102;2022-07-29T04:15:22;17.80;99.90
27890;DHT22;15238;49.082;9.102;2022-07-29T04:17:23;17.90;99.90
27890;DHT22;15238;49.082;9.102;2022-07-29T04:19:23;17.90;99.90
27890;DHT22;15238;49.082;9.102;2022-07-29T04:21:24;18.00;99.90
27890;DHT22;15238;49.082;9.102;2022-07-29T04:23:24;18.00;99.90
27890;DHT22;15238;49.082;9.102;2022-07-29T04:25:26;18.00;99.90
27890;DHT22;15238;49.082;9.102;2022-07-29T04:27:27;18.00;99.90
27890;DHT22;15238;49.082;9.102;2022-07-29T04:29:27;17.90;99.90
27890;DHT22;15238;49.082;9.102;2022-07-29T04:31:28;17.90;99.90
27890;DHT22;15238;49.082;9.102;2022-07-29T04:33:28;18.00;99.90
27890;DHT22;15238;49.082;9.102;2022-07-29T04:35:29;18.00;99.90
27890;DHT22;15238;49.082;9.102;2022-07-29T04:37:30;18.10;99.90
27890;DHT22;15238;49.082;9.102;2022-07-29T04:39:31;18.20;99.90
27890;DHT22;15238;49.082;9.102;2022-07-29T04:41:31;18.30;99.90
27890;DHT22;15238;49.082;9.102;2022-07-29T04:43:33;18.40;99.90
27890;DHT22;15238;49.082;9.102;2022-07-29T04:45:33;18.40;99.90
27890;DHT22;15238;49.082;9.102;2022-07-29T04:47:34;18.40;99.90
27890;DHT22;15238;49.082;9.102;2022-07-29T04:49:37;18.50;99.90
27890;DHT22;15238;49.082;9.102;2022-07-29T04:51:38;18.60;99.90
27890;DHT22;15238;49.082;9.102;2022-07-29T04:53:39;18.70;99.90
27890;DHT22;15238;49.082;9.102;2022-07-29T04:55:39;18.80;99.90
27890;DHT22;15238;49.082;9.102;2022-07-29T04:57:40;18.90;99.90
27890;DHT22;15238;49.082;9.102;2022-07-29T04:59:40;18.90;99.90
27890;DHT22;15238;49.082;9.102;2022-07-29T05:01:41;19.00;99.90
27890;DHT22;15238;49.082;9.102;2022-07-29T05:03:41;19.00;99.90
27890;DHT22;15238;49.082;9.102;2022-07-29T05:05:42;19.10;99.90
27890;DHT22;15238;49.082;9.102;2022-07-29T05:07:42;19.20;99.90
27890;DHT22;15238;49.082;9.102;2022-07-29T05:09:43;19.20;99.90
27890;DHT22;15238;49.082;9.102;2022-07-29T05:11:44;19.30;99.90
27890;DHT22;15238;49.082;9.102;2022-07-29T05:13:44;19.40;99.90
27890;DHT22;15238;49.082;9.102;2022-07-29T05:15:45;19.50;99.90
27890;DHT22;15238;49.082;9.102;2022-07-29T05:17:45;19.50;99.90
27890;DHT22;15238;49.082;9.102;2022-07-29T05:19:46;19.50;99.90
27890;DHT22;15238;49.082;9.102;2022-07-29T05:21:47;19.60;99.90
27890;DHT22;15238;49.082;9.102;2022-07-29T05:23:48;19.60;99.90
27890;DHT22;15238;49.082;9.102;2022-07-29T05:25:48;19.60;99.90
27890;DHT22;15238;49.082;9.102;2022-07-29T05:27:50;19.60;99.90
27890;DHT22;15238;49.082;9.102;2022-07-29T05:29:50;19.60;99.90
27890;DHT22;15238;49.082;9.102;2022-07-29T05:31:51;19.60;99.90
27890;DHT22;15238;49.082;9.102;2022-07-29T05:33:53;19.60;99.90
27890;DHT22;15238;49.082;9.102;2022-07-29T05:35:53;19.70;99.90
27890;DHT22;15238;49.082;9.102;2022-07-29T05:37:54;19.60;99.90
27890;DHT22;15238;49.082;9.102;2022-07-29T05:39:54;19.70;99.90
27890;DHT22;15238;49.082;9.102;2022-07-29T05:41:55;19.90;99.90
27890;DHT22;15238;49.082;9.102;2022-07-29T05:43:55;20.20;99.90
27890;DHT22;15238;49.082;9.102;2022-07-29T05:45:56;20.40;99.90
27890;DHT22;15238;49.082;9.102;2022-07-29T05:47:56;20.70;99.90
27890;DHT22;15238;49.082;9.102;2022-07-29T05:49:57;20.90;99.90
27890;DHT22;15238;49.082;9.102;2022-07-29T05:51:57;21.20;99.90
27890;DHT22;15238;49.082;9.102;2022-07-29T05:53:58;21.50;99.90
27890;DHT22;15238;49.082;9.102;2022-07-29T05:56:03;21.80;99.90
27890;DHT22;15238;49.082;9.102;2022-07-29T05:58:03;22.00;99.90
27890;DHT22;15238;49.082;9.102;2022-07-29T06:00:04;22.10;99.90
27890;DHT22;15238;49.082;9.102;2022-07-29T06:02:05;22.20;99.90
27890;DHT22;15238;49.082;9.102;2022-07-29T06:04:06;22.30;99.90
27890;DHT22;15238;49.082;9.102;2022-07-29T06:06:07;22.40;99.90
27890;DHT22;15238;49.082;9.102;2022-07-29T06:08:07;22.40;99.90
27890;DHT22;15238;49.082;9.102;2022-07-29T06:10:08;22.20;99.90
27890;DHT22;15238;49.082;9.102;2022-07-29T06:12:09;22.20;99.90
27890;DHT22;15238;49.082;9.102;2022-07-29T06:14:09;22.10;99.90
27890;DHT22;15238;49.082;9.102;2022-07-29T06:16:10;22.30;99.90
27890;DHT22;15238;49.082;9.102;2022-07-29T06:18:12;22.40;99.90
27890;DHT22;15238;49.082;9.102;2022-07-29T06:20:13;22.50;99.90
27890;DHT22;15238;49.082;9.102;2022-07-29T06:22:15;22.60;99.90
27890;DHT22;15238;49.082;9.102;2022-07-29T06:24:16;22.90;99.90
27890;DHT22;15238;49.082;9.102;2022-07-29T06:26:17;23.10;99.90
27890;DHT22;15238;49.082;9.102;2022-07-29T06:28:18;23.20;99.90
27890;DHT22;15238;49.082;9.102;2022-07-29T06:30:18;23.30;99.90
27890;DHT22;15238;49.082;9.102;2022-07-29T06:32:19;23.50;99.90
27890;DHT22;15238;49.082;9.102;2022-07-29T06:34:19;23.70;99.90
27890;DHT22;15238;49.082;9.102;2022-07-29T06:36:20;23.80;99.90
27890;DHT22;15238;49.082;9.102;2022-07-29T06:38:21;24.00;99.90
27890;DHT22;15238;49.082;9.102;2022-07-29T06:40:22;24.10;99.90
27890;DHT22;15238;49.082;9.102;2022-07-29T06:42:43;24.10;99.90
27890;DHT22;15238;49.082;9.102;2022-07-29T06:44:44;24.20;99.90
27890;DHT22;15238;49.082;9.102;2022-07-29T06:46:44;24.20;99.90
27890;DHT22;15238;49.082;9.102;2022-07-29T06:48:47;24.30;99.90
27890;DHT22;15238;49.082;9.102;2022-07-29T06:50:47;24.40;99.90
27890;DHT22;15238;49.082;9.102;2022-07-29T06:52:48;24.50;99.90
27890;DHT22;15238;49.082;9.102;2022-07-29T06:54:49;24.30;99.90
27890;DHT22;15238;49.082;9.102;2022-07-29T06:56:49;24.30;99.90
27890;DHT22;15238;49.082;9.102;2022-07-29T06:58:50;24.30;99.90
27890;DHT22;15238;49.082;9.102;2022-07-29T07:00:50;24.30;99.90
27890;DHT22;15238;49.082;9.102;2022-07-29T07:02:51;24.30;99.90
27890;DHT22;15238;49.082;9.102;2022-07-29T07:04:51;24.20;99.90
27890;DHT22;15238;49.082;9.102;2022-07-29T07:06:52;24.30;99.90
27890;DHT22;15238;49.082;9.102;2022-07-29T07:08:53;24.50;99.90
27890;DHT22;15238;49.082;9.102;2022-07-29T07:10:54;24.70;99.90
27890;DHT22;15238;49.082;9.102;2022-07-29T07:12:55;24.70;99.90
27890;DHT22;15238;49.082;9.102;2022-07-29T07:14:55;24.80;99.90
27890;DHT22;15238;49.082;9.102;2022-07-29T07:16:56;24.60;99.90
27890;DHT22;15238;49.082;9.102;2022-07-29T07:18:57;24.50;99.80
27890;DHT22;15238;49.082;9.102;2022-07-29T07:20:57;24.40;99.90
27890;DHT22;15238;49.082;9.102;2022-07-29T07:22:58;24.70;99.90
27890;DHT22;15238;49.082;9.102;2022-07-29T07:24:59;25.00;99.60
27890;DHT22;15238;49.082;9.102;2022-07-29T07:26:59;25.00;99.40
27890;DHT22;15238;49.082;9.102;2022-07-29T07:29:00;25.10;98.90
27890;DHT22;15238;49.082;9.102;2022-07-29T07:31:00;24.90;98.80
27890;DHT22;15238;49.082;9.102;2022-07-29T07:33:01;24.80;99.00
27890;DHT22;15238;49.082;9.102;2022-07-29T07:35:06;24.90;99.50
27890;DHT22;15238;49.082;9.102;2022-07-29T07:37:07;25.20;99.00
27890;DHT22;15238;49.082;9.102;2022-07-29T07:39:07;25.50;98.00
27890;DHT22;15238;49.082;9.102;2022-07-29T07:41:08;25.90;97.50
27890;DHT22;15238;49.082;9.102;2022-07-29T07:43:08;26.10;97.00
27890;DHT22;15238;49.082;9.102;2022-07-29T07:45:09;26.40;96.30
27890;DHT22;15238;49.082;9.102;2022-07-29T07:47:10;25.90;96.20
27890;DHT22;15238;49.082;9.102;2022-07-29T07:49:10;25.40;97.00
27890;DHT22;15238;49.082;9.102;2022-07-29T07:51:11;25.20;97.60
27890;DHT22;15238;49.082;9.102;2022-07-29T07:53:12;25.40;97.50
27890;DHT22;15238;49.082;9.102;2022-07-29T07:55:12;25.70;97.30
27890;DHT22;15238;49.082;9.102;2022-07-29T07:57:13;25.80;97.20
27890;DHT22;15238;49.082;9.102;2022-07-29T07:59:14;26.10;96.70
27890;DHT22;15238;49.082;9.102;2022-07-29T08:01:14;26.40;96.30
27890;DHT22;15238;49.082;9.102;2022-07-29T08:03:19;26.60;95.40
27890;DHT22;15238;49.082;9.102;2022-07-29T08:05:19;26.40;95.50
27890;DHT22;15238;49.082;9.102;2022-07-29T08:07:20;25.90;95.80
27890;DHT22;15238;49.082;9.102;2022-07-29T08:09:21;25.80;96.10
27890;DHT22;15238;49.082;9.102;2022-07-29T08:11:21;25.60;96.50
27890;DHT22;15238;49.082;9.102;2022-07-29T08:13:24;25.60;96.30
27890;DHT22;15238;49.082;9.102;2022-07-29T08:15:25;25.90;95.30
27890;DHT22;15238;49.082;9.102;2022-07-29T08:17:26;25.90;95.90
27890;DHT22;15238;49.082;9.102;2022-07-29T08:19:27;26.00;95.50
27890;DHT22;15238;49.082;9.102;2022-07-29T08:21:27;26.30;95.20
27890;DHT22;15238;49.082;9.102;2022-07-29T08:23:28;26.10;95.40
27890;DHT22;15238;49.082;9.102;2022-07-29T08:25:36;26.40;94.80
27890;DHT22;15238;49.082;9.102;2022-07-29T08:27:38;26.70;94.50
27890;DHT22;15238;49.082;9.102;2022-07-29T08:29:39;27.00;93.70
27890;DHT22;15238;49.082;9.102;2022-07-29T08:31:40;27.20;93.50
27890;DHT22;15238;49.082;9.102;2022-07-29T08:33:41;27.20;93.30
27890;DHT22;15238;49.082;9.102;2022-07-29T08:35:41;27.20;93.30
27890;DHT22;15238;49.082;9.102;2022-07-29T08:37:42;26.70;93.70
27890;DHT22;15238;49.082;9.102;2022-07-29T08:39:42;26.50;94.10
27890;DHT22;15238;49.082;9.102;2022-07-29T08:41:43;26.50;93.70
27890;DHT22;15238;49.082;9.102;2022-07-29T08:43:43;26.50;94.20
27890;DHT22;15238;49.082;9.102;2022-07-29T08:45:46;26.50;94.30
27890;DHT22;15238;49.082;9.102;2022-07-29T08:47:46;26.70;94.20
27890;DHT22;15238;49.082;9.102;2022-07-29T08:49:47;26.80;94.00
27890;DHT22;15238;49.082;9.102;2022-07-29T08:51:48;26.60;93.20
27890;DHT22;15238;49.082;9.102;2022-07-29T08:53:50;26.70;93.30
27890;DHT22;15238;49.082;9.102;2022-07-29T08:55:51;26.40;93.90
27890;DHT22;15238;49.082;9.102;2022-07-29T08:57:52;26.50;93.80
27890;DHT22;15238;49.082;9.102;2022-07-29T08:59:54;26.70;93.70
27890;DHT22;15238;49.082;9.102;2022-07-29T09:01:57;26.50;94.10
27890;DHT22;15238;49.082;9.102;2022-07-29T09:04:01;26.50;94.40
27890;DHT22;15238;49.082;9.102;2022-07-29T09:06:03;27.00;94.20
27890;DHT22;15238;49.082;9.102;2022-07-29T09:08:04;27.50;93.50
27890;DHT22;15238;49.082;9.102;2022-07-29T09:10:05;27.70;92.90
27890;DHT22;15238;49.082;9.102;2022-07-29T09:12:06;27.90;92.80
27890;DHT22;15238;49.082;9.102;2022-07-29T09:14:11;28.20;92.20
27890;DHT22;15238;49.082;9.102;2022-07-29T09:16:12;28.40;91.40
27890;DHT22;15238;49.082;9.102;2022-07-29T09:18:12;28.50;90.80
27890;DHT22;15238;49.082;9.102;2022-07-29T09:20:32;28.10;90.80
27890;DHT22;15238;49.082;9.102;2022-07-29T09:22:52;27.40;92.40
27890;DHT22;15238;49.082;9.102;2022-07-29T09:24:53;27.60;91.10
27890;DHT22;15238;49.082;9.102;2022-07-29T09:26:54;27.60;90.60
27890;DHT22;15238;49.082;9.102;2022-07-29T09:28:55;27.50;89.50
27890;DHT22;15238;49.082;9.102;2022-07-29T09:30:57;27.60;89.70
27890;DHT22;15238;49.082;9.102;2022-07-29T09:33:02;28.00;88.60
27890;DHT22;15238;49.082;9.102;2022-07-29T09:35:23;28.10;86.80
27890;DHT22;15238;49.082;9.102;2022-07-29T09:37:28;28.00;85.50
27890;DHT22;15238;49.082;9.102;2022-07-29T09:41:47;28.00;86.00
27890;DHT22;15238;49.082;9.102;2022-07-29T09:43:57;28.10;83.90
27890;DHT22;15238;49.082;9.102;2022-07-29T09:46:10;28.50;83.50
27890;DHT22;15238;49.082;9.102;2022-07-29T09:48:16;28.40;83.40
27890;DHT22;15238;49.082;9.102;2022-07-29T09:50:17;28.30;83.00
27890;DHT22;15238;49.082;9.102;2022-07-29T09:52:25;28.40;80.90
27890;DHT22;15238;49.082;9.102;2022-07-29T09:54:26;28.80;78.80
27890;DHT22;15238;49.082;9.102;2022-07-29T09:56:40;28.70;80.50
27890;DHT22;15238;49.082;9.102;2022-07-29T09:58:41;28.70;78.30
27890;DHT22;15238;49.082;9.102;2022-07-29T10:00:42;28.60;77.70
27890;DHT22;15238;49.082;9.102;2022-07-29T10:02:45;28.60;76.80
27890;DHT22;15238;49.082;9.102;2022-07-29T10:04:46;29.10;76.80
27890;DHT22;15238;49.082;9.102;2022-07-29T10:07:01;29.00;74.20
27890;DHT22;15238;49.082;9.102;2022-07-29T10:09:08;28.90;75.30
27890;DHT22;15238;49.082;9.102;2022-07-29T10:11:14;28.70;74.40
27890;DHT22;15238;49.082;9.102;2022-07-29T10:13:15;28.70;74.30
27890;DHT22;15238;49.082;9.102;2022-07-29T10:15:15;28.60;71.80
27890;DHT22;15238;49.082;9.102;2022-07-29T10:17:17;28.20;71.50
27890;DHT22;15238;49.082;9.102;2022-07-29T10:19:19;28.40;72.50
27890;DHT22;15238;49.082;9.102;2022-07-29T10:21:19;28.50;72.90
27890;DHT22;15238;49.082;9.102;2022-07-29T10:23:20;28.50;73.10
27890;DHT22;15238;49.082;9.102;2022-07-29T10:25:21;28.50;71.80
27890;DHT22;15238;49.082;9.102;2022-07-29T10:27:22;28.70;71.90
27890;DHT22;15238;49.082;9.102;2022-07-29T10:29:24;29.00;72.70
27890;DHT22;15238;49.082;9.102;2022-07-29T10:31:29;29.40;71.50
27890;DHT22;15238;49.082;9.102;2022-07-29T10:41:11;29.70;70.70
27890;DHT22;15238;49.082;9.102;2022-07-29T10:43:33;29.70;69.60
27890;DHT22;15238;49.082;9.102;2022-07-29T10:45:36;29.40;71.20
27890;DHT22;15238;49.082;9.102;2022-07-29T10:47:37;29.60;71.70
27890;DHT22;15238;49.082;9.102;2022-07-29T10:49:37;29.70;71.50
27890;DHT22;15238;49.082;9.102;2022-07-29T10:52:04;29.90;70.30
27890;DHT22;15238;49.082;9.102;2022-07-29T10:54:05;30.10;69.70
27890;DHT22;15238;49.082;9.102;2022-07-29T10:56:32;30.50;70.90
27890;DHT22;15238;49.082;9.102;2022-07-29T10:58:34;31.00;67.70
27890;DHT22;15238;49.082;9.102;2022-07-29T11:00:34;31.20;67.30
27890;DHT22;15238;49.082;9.102;2022-07-29T11:09:18;30.10;68.40
27890;DHT22;15238;49.082;9.102;2022-07-29T11:13:45;29.90;68.60
27890;DHT22;15238;49.082;9.102;2022-07-29T11:15:58;29.90;69.50
27890;DHT22;15238;49.082;9.102;2022-07-29T11:20:38;29.80;68.80
27890;DHT22;15238;49.082;9.102;2022-07-29T11:22:40;29.40;69.60
27890;DHT22;15238;49.082;9.102;2022-07-29T11:24:41;29.60;70.40
27890;DHT22;15238;49.082;9.102;2022-07-29T11:26:42;30.00;69.80
27890;DHT22;15238;49.082;9.102;2022-07-29T11:28:51;30.30;68.60
27890;DHT22;15238;49.082;9.102;2022-07-29T11:30:53;30.50;67.10
27890;DHT22;15238;49.082;9.102;2022-07-29T11:32:55;30.10;69.10
27890;DHT22;15238;49.082;9.102;2022-07-29T11:35:15;30.40;68.10
27890;DHT22;15238;49.082;9.102;2022-07-29T11:37:17;30.50;67.60
27890;DHT22;15238;49.082;9.102;2022-07-29T11:39:28;30.30;66.40
27890;DHT22;15238;49.082;9.102;2022-07-29T11:41:29;30.40;66.20
27890;DHT22;15238;49.082;9.102;2022-07-29T11:44:02;30.40;64.60
27890;DHT22;15238;49.082;9.102;2022-07-29T11:46:02;30.70;64.30
27890;DHT22;15238;49.082;9.102;2022-07-29T11:48:03;31.10;63.60
27890;DHT22;15238;49.082;9.102;2022-07-29T11:50:08;31.10;63.90
27890;DHT22;15238;49.082;9.102;2022-07-29T11:52:10;31.20;63.70
27890;DHT22;15238;49.082;9.102;2022-07-29T11:54:13;31.50;63.00
27890;DHT22;15238;49.082;9.102;2022-07-29T11:56:17;31.30;63.40
27890;DHT22;15238;49.082;9.102;2022-07-29T11:58:22;31.20;63.70
27890;DHT22;15238;49.082;9.102;2022-07-29T12:00:40;31.00;64.40
27890;DHT22;15238;49.082;9.102;2022-07-29T12:02:42;30.80;64.30
27890;DHT22;15238;49.082;9.102;2022-07-29T12:04:54;30.60;64.00
27890;DHT22;15238;49.082;9.102;2022-07-29T12:06:55;30.60;62.40
27890;DHT22;15238;49.082;9.102;2022-07-29T12:08:56;30.60;63.60
27890;DHT22;15238;49.082;9.102;2022-07-29T12:10:57;30.60;64.10
27890;DHT22;15238;49.082;9.102;2022-07-29T12:12:57;30.50;62.40
27890;DHT22;15238;49.082;9.102;2022-07-29T12:14:58;30.60;62.80
27890;DHT22;15238;49.082;9.102;2022-07-29T12:17:28;30.40;62.90
27890;DHT22;15238;49.082;9.102;2022-07-29T12:19:41;30.30;63.40
27890;DHT22;15238;49.082;9.102;2022-07-29T12:21:46;30.40;62.20
27890;DHT22;15238;49.082;9.102;2022-07-29T12:23:55;30.60;62.80
27890;DHT22;15238;49.082;9.102;2022-07-29T12:25:57;30.50;61.80
27890;DHT22;15238;49.082;9.102;2022-07-29T12:28:04;30.50;61.60
27890;DHT22;15238;49.082;9.102;2022-07-29T12:30:14;30.50;62.10
27890;DHT22;15238;49.082;9.102;2022-07-29T12:32:15;30.50;61.70
27890;DHT22;15238;49.082;9.102;2022-07-29T12:34:16;30.40;62.40
27890;DHT22;15238;49.082;9.102;2022-07-29T12:36:16;30.40;61.00
27890;DHT22;15238;49.082;9.102;2022-07-29T12:38:17;30.30;61.80
27890;DHT22;15238;49.082;9.102;2022-07-29T12:40:18;30.10;62.30
27890;DHT22;15238;49.082;9.102;2022-07-29T12:42:20;30.00;62.30
27890;DHT22;15238;49.082;9.102;2022-07-29T12:44:21;30.10;62.00
27890;DHT22;15238;49.082;9.102;2022-07-29T12:46:22;30.00;62.30
27890;DHT22;15238;49.082;9.102;2022-07-29T12:48:40;29.80;62.60
27890;DHT22;15238;49.082;9.102;2022-07-29T12:50:59;30.00;62.40
27890;DHT22;15238;49.082;9.102;2022-07-29T12:53:11;30.10;62.40
27890;DHT22;15238;49.082;9.102;2022-07-29T12:55:12;29.60;62.10
27890;DHT22;15238;49.082;9.102;2022-07-29T12:57:12;29.40;62.30
27890;DHT22;15238;49.082;9.102;2022-07-29T13:01:17;28.90;63.10
27890;DHT22;15238;49.082;9.102;2022-07-29T13:03:19;29.00;63.40
27890;DHT22;15238;49.082;9.102;2022-07-29T13:05:19;29.00;63.20
27890;DHT22;15238;49.082;9.102;2022-07-29T13:07:27;29.00;62.40
27890;DHT22;15238;49.082;9.102;2022-07-29T13:09:42;29.10;62.80
27890;DHT22;15238;49.082;9.102;2022-07-29T13:11:51;29.20;62.10
27890;DHT22;15238;49.082;9.102;2022-07-29T13:13:52;29.30;61.40
27890;DHT22;15238;49.082;9.102;2022-07-29T13:16:06;28.90;61.50
27890;DHT22;15238;49.082;9.102;2022-07-29T13:18:29;29.00;63.40
27890;DHT22;15238;49.082;9.102;2022-07-29T13:20:30;29.10;63.20
27890;DHT22;15238;49.082;9.102;2022-07-29T13:22:31;29.10;62.70
27890;DHT22;15238;49.082;9.102;2022-07-29T13:24:32;29.00;62.40
27890;DHT22;15238;49.082;9.102;2022-07-29T13:26:33;28.90;63.20
27890;DHT22;15238;49.082;9.102;2022-07-29T13:28:33;29.00;63.80